sensor_id;sensor_type;location;lat;lon;timestamp;pressure;altitude;pressure_sealevel;temperature;humidity
55540;BME280;41384;51.418;7.286;2023-05-08T00:00:55;100276.09;;;15.01;100.00
55540;BME280;41384;51.418;7.286;2023-05-08T00:03:21;100279.81;;;15.00;100.00
55540;BME280;41384;51.418;7.286;2023-05-08T00:05:48;100278.06;;;14.76;100.00
55540;BME280;41384;51.418;7.286;2023-05-08T00:08:13;100277.31;;;14.87;100.00
55540;BME280;41384;51.418;7.286;2023-05-08T00:10:38;100272.41;;;14.72;100.00
55540;BME280;41384;51.418;7.286;2023-05-08T00:13:03;100279.22;;;14.61;100.00
55540;BME280;41384;51.418;7.286;2023-05-08T00:15:29;100277.50;;;14.48;100.00
55540;BME280;41384;51.418;7.286;2023-05-08T00:17:54;100277.94;;;14.45;100.00
55540;BME280;41384;51.418;7.286;2023-05-08T00:20:19;100273.91;;;14.42;100.00
55540;BME280;41384;51.418;7.286;2023-05-08T00:22:45;100277.16;;;14.44;100.00
55540;BME280;41384;51.418;7.286;2023-05-08T00:25:10;100278.69;;;14.52;100.00
55540;BME280;41384;51.418;7.286;2023-05-08T00:27:35;100280.06;;;14.62;100.00
55540;BME280;41384;51.418;7.286;2023-05-08T00:30:00;100275.81;;;14.54;100.00
55540;BME280;41384;51.418;7.286;2023-05-08T00:32:26;100280.19;;;14.67;100.00
55540;BME280;41384;51.418;7.286;2023-05-08T00:34:51;100270.06;;;14.57;100.00
55540;BME280;41384;51.418;7.286;2023-05-08T00:37:16;100269.97;;;14.45;100.00
55540;BME280;41384;51.418;7.286;2023-05-08T00:39:42;100270.97;;;14.51;100.00
55540;BME280;41384;51.418;7.286;2023-05-08T00:42:07;100274.41;;;14.51;100.00
55540;BME280;41384;51.418;7.286;2023-05-08T00:44:32;100279.44;;;14.41;100.00
55540;BME280;41384;51.418;7.286;2023-05-08T00:46:58;100277.00;;;14.58;100.00
55540;BME280;41384;51.418;7.286;2023-05-08T00:49:24;100276.28;;;14.51;100.00
55540;BME280;41384;51.418;7.286;2023-05-08T00:51:52;100284.88;;;14.46;100.00
55540;BME280;41384;51.418;7.286;2023-05-08T00:54:19;100283.16;;;14.58;100.00
55540;BME280;41384;51.418;7.286;2023-05-08T00:56:44;100279.47;;;14.59;100.00
55540;BME280;41384;51.418;7.286;2023-05-08T00:59:14;100276.63;;;14.54;100.00
55540;BME280;41384;51.418;7.286;2023-05-08T01:01:42;100279.13;;;14.49;100.00
55540;BME280;41384;51.418;7.286;2023-05-08T01:04:07;100282.81;;;14.48;100.00
55540;BME280;41384;51.418;7.286;2023-05-08T01:06:33;100280.47;;;14.40;100.00
55540;BME280;41384;51.418;7.286;2023-05-08T01:08:59;100276.19;;;14.39;100.00
55540;BME280;41384;51.418;7.286;2023-05-08T01:11:46;100273.81;;;14.49;100.00
55540;BME280;41384;51.418;7.286;2023-05-08T01:14:19;100266.75;;;14.43;100.00
55540;BME280;41384;51.418;7.286;2023-05-08T01:17:13;100270.94;;;14.32;100.00
55540;BME280;41384;51.418;7.286;2023-05-08T01:19:57;100267.47;;;14.32;100.00
55540;BME280;41384;51.418;7.286;2023-05-08T01:28:42;100277.50;;;14.48;100.00
55540;BME280;41384;51.418;7.286;2023-05-08T01:34:19;100279.88;;;14.56;100.00
55540;BME280;41384;51.418;7.286;2023-05-08T01:37:04;100276.28;;;14.51;100.00
55540;BME280;41384;51.418;7.286;2023-05-08T01:42:06;100277.00;;;14.21;100.00
55540;BME280;41384;51.418;7.286;2023-05-08T01:44:35;100282.06;;;14.22;100.00
55540;BME280;41384;51.418;7.286;2023-05-08T01:47:05;100284.38;;;14.37;100.00
55540;BME280;41384;51.418;7.286;2023-05-08T01:49:39;100278.69;;;14.52;100.00
55540;BME280;41384;51.418;7.286;2023-05-08T01:52:17;100273.38;;;14.34;100.00
55540;BME280;41384;51.418;7.286;2023-05-08T01:54:55;100281.59;;;14.07;100.00
55540;BME280;41384;51.418;7.286;2023-05-08T01:57:23;100274.66;;;14.06;100.00
55540;BME280;41384;51.418;7.286;2023-05-08T01:59:52;100280.13;;;14.11;100.00
55540;BME280;41384;51.418;7.286;2023-05-08T02:02:19;100276.13;;;14.27;100.00
55540;BME280;41384;51.418;7.286;2023-05-08T02:04:48;100275.84;;;14.10;100.00
55540;BME280;41384;51.418;7.286;2023-05-08T02:07:13;100285.81;;;14.14;100.00
55540;BME280;41384;51.418;7.286;2023-05-08T02:09:41;100279.97;;;14.06;100.00
55540;BME280;41384;51.418;7.286;2023-05-08T02:12:08;100288.53;;;14.08;100.00
55540;BME280;41384;51.418;7.286;2023-05-08T02:14:35;100282.47;;;14.00;100.00
55540;BME280;41384;51.418;7.286;2023-05-08T02:17:02;100283.19;;;14.14;100.00
55540;BME280;41384;51.418;7.286;2023-05-08T02:19:30;100288.47;;;14.14;100.00
55540;BME280;41384;51.418;7.286;2023-05-08T02:21:57;100293.78;;;14.14;100.00
55540;BME280;41384;51.418;7.286;2023-05-08T02:24:23;100291.94;;;14.15;100.00
55540;BME280;41384;51.418;7.286;2023-05-08T02:26:51;100293.22;;;14.31;100.00
55540;BME280;41384;51.418;7.286;2023-05-08T02:29:18;100292.84;;;14.27;100.00
55540;BME280;41384;51.418;7.286;2023-05-08T02:31:45;100293.22;;;14.31;100.00
55540;BME280;41384;51.418;7.286;2023-05-08T02:34:12;100294.03;;;14.32;100.00
55540;BME280;41384;51.418;7.286;2023-05-08T02:36:38;100298.66;;;14.18;100.00
55540;BME280;41384;51.418;7.286;2023-05-08T02:39:04;100295.63;;;14.14;100.00
55540;BME280;41384;51.418;7.286;2023-05-08T02:41:31;100297.41;;;14.20;100.00
55540;BME280;41384;51.418;7.286;2023-05-08T02:43:57;100296.63;;;14.38;100.00
55540;BME280;41384;51.418;7.286;2023-05-08T02:46:46;100300.81;;;14.46;100.00
55540;BME280;41384;51.418;7.286;2023-05-08T02:49:26;100304.19;;;14.16;100.00
55540;BME280;41384;51.418;7.286;2023-05-08T02:52:05;100308.06;;;14.13;100.00
55540;BME280;41384;51.418;7.286;2023-05-08T02:54:38;100309.59;;;14.03;100.00
55540;BME280;41384;51.418;7.286;2023-05-08T02:57:21;100295.13;;;14.24;100.00
55540;BME280;41384;51.418;7.286;2023-05-08T03:00:04;100300.00;;;14.01;100.00
55540;BME280;41384;51.418;7.286;2023-05-08T03:02:40;100297.06;;;13.84;100.00
55540;BME280;41384;51.418;7.286;2023-05-08T03:05:28;100300.06;;;13.95;100.00
55540;BME280;41384;51.418;7.286;2023-05-08T03:07:56;100300.19;;;14.07;100.00
55540;BME280;41384;51.418;7.286;2023-05-08T03:10:27;100301.03;;;14.00;100.00
55540;BME280;41384;51.418;7.286;2023-05-08T03:12:54;100298.28;;;13.89;100.00
55540;BME280;41384;51.418;7.286;2023-05-08T03:17:57;100298.00;;;13.71;100.00
55540;BME280;41384;51.418;7.286;2023-05-08T03:20:26;100308.00;;;13.69;100.00
55540;BME280;41384;51.418;7.286;2023-05-08T03:22:55;100302.06;;;13.74;100.00
55540;BME280;41384;51.418;7.286;2023-05-08T03:25:22;100299.75;;;13.52;100.00
55540;BME280;41384;51.418;7.286;2023-05-08T03:27:48;100303.97;;;13.60;100.00
55540;BME280;41384;51.418;7.286;2023-05-08T03:30:15;100304.41;;;13.57;100.00
55540;BME280;41384;51.418;7.286;2023-05-08T03:32:42;100298.47;;;13.62;100.00
55540;BME280;41384;51.418;7.286;2023-05-08T03:35:09;100302.66;;;13.76;100.00
55540;BME280;41384;51.418;7.286;2023-05-08T03:37:34;100297.94;;;13.78;100.00
55540;BME280;41384;51.418;7.286;2023-05-08T03:40:00;100297.47;;;13.56;100.00
55540;BME280;41384;51.418;7.286;2023-05-08T03:42:26;100294.47;;;13.46;100.00
55540;BME280;41384;51.418;7.286;2023-05-08T03:44:52;100294.38;;;13.59;100.00
55540;BME280;41384;51.418;7.286;2023-05-08T03:47:19;100292.03;;;13.76;100.00
55540;BME280;41384;51.418;7.286;2023-05-08T03:49:47;100291.56;;;13.54;100.00
55540;BME280;41384;51.418;7.286;2023-05-08T03:52:13;100283.63;;;13.54;100.00
55540;BME280;41384;51.418;7.286;2023-05-08T03:54:38;100288.16;;;13.79;100.00
55540;BME280;41384;51.418;7.286;2023-05-08T03:57:03;100284.75;;;13.71;100.00
55540;BME280;41384;51.418;7.286;2023-05-08T03:59:40;100283.59;;;13.61;100.00
55540;BME280;41384;51.418;7.286;2023-05-08T04:02:20;100280.09;;;13.60;100.00
55540;BME280;41384;51.418;7.286;2023-05-08T04:04:54;100273.41;;;13.57;100.00
55540;BME280;41384;51.418;7.286;2023-05-08T04:07:30;100280.66;;;13.69;100.00
55540;BME280;41384;51.418;7.286;2023-05-08T04:11:24;100284.69;;;13.78;100.00
55540;BME280;41384;51.418;7.286;2023-05-08T04:13:15;100288.25;;;13.91;100.00
55540;BME280;41384;51.418;7.286;2023-05-08T04:16:05;100287.09;;;14.05;100.00
55540;BME280;41384;51.418;7.286;2023-05-08T04:18:30;100285.28;;;14.06;100.00
55540;BME280;41384;51.418;7.286;2023-05-08T04:20:59;100298.22;;;13.95;100.00
55540;BME280;41384;51.418;7.286;2023-05-08T04:23:27;100299.56;;;14.05;100.00
55540;BME280;41384;51.418;7.286;2023-05-08T04:25:54;100296.59;;;13.94;100.00
55540;BME280;41384;51.418;7.286;2023-05-08T04:28:20;100304.41;;;13.89;100.00
55540;BME280;41384;51.418;7.286;2023-05-08T04:30:46;100300.72;;;13.90;100.00
55540;BME280;41384;51.418;7.286;2023-05-08T04:33:11;100305.16;;;13.96;100.00
55540;BME280;41384;51.418;7.286;2023-05-08T04:35:37;100306.03;;;13.90;100.00
55540;BME280;41384;51.418;7.286;2023-05-08T04:38:03;100304.56;;;13.94;100.00
55540;BME280;41384;51.418;7.286;2023-05-08T04:40:28;100303.91;;;13.99;100.00
55540;BME280;41384;51.418;7.286;2023-05-08T04:42:54;100311.06;;;13.98;100.00
55540;BME280;41384;51.418;7.286;2023-05-08T04:45:19;100310.31;;;13.91;100.00
55540;BME280;41384;51.418;7.286;2023-05-08T04:47:45;100307.16;;;14.01;100.00
55540;BME280;41384;51.418;7.286;2023-05-08T04:50:10;100306.63;;;13.92;100.00
55540;BME280;41384;51.418;7.286;2023-05-08T04:52:36;100299.25;;;13.94;100.00
55540;BME280;41384;51.418;7.286;2023-05-08T04:55:01;100309.75;;;14.08;100.00
55540;BME280;41384;51.418;7.286;2023-05-08T04:57:26;100317.94;;;14.06;100.00
55540;BME280;41384;51.418;7.286;2023-05-08T04:59:52;100320.38;;;14.08;100.00
55540;BME280;41384;51.418;7.286;2023-05-08T05:02:17;100322.19;;;14.33;100.00
55540;BME280;41384;51.418;7.286;2023-05-08T05:04:42;100317.63;;;14.40;100.00
55540;BME280;41384;51.418;7.286;2023-05-08T05:07:07;100322.03;;;14.53;100.00
55540;BME280;41384;51.418;7.286;2023-05-08T05:09:33;100325.41;;;14.41;100.00
55540;BME280;41384;51.418;7.286;2023-05-08T05:12:03;100332.41;;;14.54;100.00
55540;BME280;41384;51.418;7.286;2023-05-08T05:14:28;100339.94;;;14.57;100.00
55540;BME280;41384;51.418;7.286;2023-05-08T05:16:54;100333.00;;;14.56;100.00
55540;BME280;41384;51.418;7.286;2023-05-08T05:19:19;100335.06;;;14.54;100.00
55540;BME280;41384;51.418;7.286;2023-05-08T05:21:45;100330.13;;;14.58;100.00
55540;BME280;41384;51.418;7.286;2023-05-08T05:24:10;100333.38;;;14.60;100.00
55540;BME280;41384;51.418;7.286;2023-05-08T05:26:35;100335.00;;;14.61;100.00
55540;BME280;41384;51.418;7.286;2023-05-08T05:29:01;100337.38;;;14.69;100.00
55540;BME280;41384;51.418;7.286;2023-05-08T05:31:27;100339.13;;;14.82;100.00
55540;BME280;41384;51.418;7.286;2023-05-08T05:33:53;100339.84;;;14.90;100.00
55540;BME280;41384;51.418;7.286;2023-05-08T05:36:18;100344.56;;;14.87;100.00
55540;BME280;41384;51.418;7.286;2023-05-08T05:38:43;100350.25;;;14.72;100.00
55540;BME280;41384;51.418;7.286;2023-05-08T05:41:08;100349.75;;;14.82;100.00
55540;BME280;41384;51.418;7.286;2023-05-08T05:43:34;100351.06;;;14.92;100.00
55540;BME280;41384;51.418;7.286;2023-05-08T05:46:06;100351.44;;;14.95;100.00
55540;BME280;41384;51.418;7.286;2023-05-08T05:48:32;100357.47;;;14.84;100.00
55540;BME280;41384;51.418;7.286;2023-05-08T05:50:57;100359.09;;;14.85;100.00
55540;BME280;41384;51.418;7.286;2023-05-08T05:53:22;100362.28;;;14.94;100.00
55540;BME280;41384;51.418;7.286;2023-05-08T05:55:48;100360.66;;;14.93;100.00
55540;BME280;41384;51.418;7.286;2023-05-08T05:58:13;100362.28;;;14.94;100.00
55540;BME280;41384;51.418;7.286;2023-05-08T06:00:39;100358.81;;;14.93;100.00
55540;BME280;41384;51.418;7.286;2023-05-08T06:03:05;100359.56;;;15.00;100.00
55540;BME280;41384;51.418;7.286;2023-05-08T06:05:30;100363.19;;;15.06;100.00
55540;BME280;41384;51.418;7.286;2023-05-08T06:07:56;100364.22;;;15.05;100.00
55540;BME280;41384;51.418;7.286;2023-05-08T06:10:22;100361.63;;;14.98;100.00
55540;BME280;41384;51.418;7.286;2023-05-08T06:12:47;100367.97;;;15.16;100.00
55540;BME280;41384;51.418;7.286;2023-05-08T06:15:12;100357.34;;;15.16;100.00
55540;BME280;41384;51.418;7.286;2023-05-08T06:17:39;100361.53;;;15.24;100.00
55540;BME280;41384;51.418;7.286;2023-05-08T06:20:05;100353.84;;;15.34;100.00
55540;BME280;41384;51.418;7.286;2023-05-08T06:22:30;100356.63;;;15.39;100.00
55540;BME280;41384;51.418;7.286;2023-05-08T06:24:55;100366.38;;;15.45;100.00
55540;BME280;41384;51.418;7.286;2023-05-08T06:27:21;100361.66;;;15.48;100.00
55540;BME280;41384;51.418;7.286;2023-05-08T06:29:47;100370.00;;;15.51;100.00
55540;BME280;41384;51.418;7.286;2023-05-08T06:32:15;100365.25;;;15.53;100.00
55540;BME280;41384;51.418;7.286;2023-05-08T06:34:41;100362.38;;;15.55;100.00
55540;BME280;41384;51.418;7.286;2023-05-08T06:37:06;100356.22;;;15.54;100.00
55540;BME280;41384;51.418;7.286;2023-05-08T06:39:31;100368.50;;;15.55;100.00
55540;BME280;41384;51.418;7.286;2023-05-08T06:41:56;100360.50;;;15.55;100.00
55540;BME280;41384;51.418;7.286;2023-05-08T06:44:21;100361.34;;;15.56;100.00
55540;BME280;41384;51.418;7.286;2023-05-08T06:46:47;100354.16;;;15.56;100.00
55540;BME280;41384;51.418;7.286;2023-05-08T06:49:12;100363.75;;;15.57;100.00
55540;BME280;41384;51.418;7.286;2023-05-08T06:51:37;100362.06;;;15.63;100.00
55540;BME280;41384;51.418;7.286;2023-05-08T06:54:03;100364.13;;;15.61;100.00
55540;BME280;41384;51.418;7.286;2023-05-08T06:56:32;100366.22;;;15.59;100.00
55540;BME280;41384;51.418;7.286;2023-05-08T06:58:58;100369.91;;;15.58;100.00
55540;BME280;41384;51.418;7.286;2023-05-08T07:01:23;100365.75;;;15.62;100.00
55540;BME280;41384;51.418;7.286;2023-05-08T07:03:48;100364.72;;;15.63;100.00
55540;BME280;41384;51.418;7.286;2023-05-08T07:06:13;100361.94;;;15.70;100.00
55540;BME280;41384;51.418;7.286;2023-05-08T07:08:39;100357.34;;;15.77;100.00
55540;BME280;41384;51.418;7.286;2023-05-08T07:11:04;100354.69;;;15.77;100.00
55540;BME280;41384;51.418;7.286;2023-05-08T07:13:30;100351.69;;;15.73;100.00
55540;BME280;41384;51.418;7.286;2023-05-08T07:15:55;100356.53;;;15.76;100.00
55540;BME280;41384;51.418;7.286;2023-05-08T07:18:21;100354.00;;;15.82;100.00
55540;BME280;41384;51.418;7.286;2023-05-08T07:20:46;100360.13;;;15.82;100.00
55540;BME280;41384;51.418;7.286;2023-05-08T07:23:11;100358.50;;;15.81;100.00
55540;BME280;41384;51.418;7.286;2023-05-08T07:25:37;100356.88;;;15.80;100.00
55540;BME280;41384;51.418;7.286;2023-05-08T07:28:02;100354.34;;;15.85;100.00
55540;BME280;41384;51.418;7.286;2023-05-08T07:30:28;100354.34;;;15.85;100.00
55540;BME280;41384;51.418;7.286;2023-05-08T07:32:53;100352.31;;;15.87;100.00
55540;BME280;41384;51.418;7.286;2023-05-08T07:35:18;100350.13;;;15.96;100.00
55540;BME280;41384;51.418;7.286;2023-05-08T07:37:44;100353.63;;;15.97;100.00
55540;BME280;41384;51.418;7.286;2023-05-08T07:40:09;100363.69;;;15.95;100.00
55540;BME280;41384;51.418;7.286;2023-05-08T07:42:42;100354.53;;;16.02;100.00
55540;BME280;41384;51.418;7.286;2023-05-08T07:45:08;100364.16;;;16.03;100.00
55540;BME280;41384;51.418;7.286;2023-05-08T07:47:34;100364.53;;;16.07;100.00
55540;BME280;41384;51.418;7.286;2023-05-08T07:49:59;100375.28;;;16.12;100.00
55540;BME280;41384;51.418;7.286;2023-05-08T07:52:25;100376.66;;;16.15;100.00
55540;BME280;41384;51.418;7.286;2023-05-08T07:54:50;100383.16;;;16.19;100.00
55540;BME280;41384;51.418;7.286;2023-05-08T07:57:15;100377.94;;;16.24;100.00
55540;BME280;41384;51.418;7.286;2023-05-08T07:59:41;100391.84;;;16.26;100.00
55540;BME280;41384;51.418;7.286;2023-05-08T08:02:06;100383.97;;;16.31;100.00
55540;BME280;41384;51.418;7.286;2023-05-08T08:04:31;100387.84;;;16.36;100.00
55540;BME280;41384;51.418;7.286;2023-05-08T08:06:57;100402.31;;;16.40;100.00
55540;BME280;41384;51.418;7.286;2023-05-08T08:09:22;100393.16;;;16.36;100.00
55540;BME280;41384;51.418;7.286;2023-05-08T08:11:48;100393.97;;;16.36;100.00
55540;BME280;41384;51.418;7.286;2023-05-08T08:14:13;100394.78;;;16.37;100.00
55540;BME280;41384;51.418;7.286;2023-05-08T08:16:38;100397.44;;;16.37;100.00
55540;BME280;41384;51.418;7.286;2023-05-08T08:19:03;100395.81;;;16.24;100.00
55540;BME280;41384;51.418;7.286;2023-05-08T08:21:29;100397.19;;;16.26;100.00
55540;BME280;41384;51.418;7.286;2023-05-08T08:23:55;100394.50;;;16.26;100.00
55540;BME280;41384;51.418;7.286;2023-05-08T08:26:20;100401.00;;;16.18;100.00
55540;BME280;41384;51.418;7.286;2023-05-08T08:28:46;100399.25;;;16.24;100.00
55540;BME280;41384;51.418;7.286;2023-05-08T08:31:11;100397.19;;;16.26;100.00
55540;BME280;41384;51.418;7.286;2023-05-08T08:33:36;100404.03;;;16.34;100.00
55540;BME280;41384;51.418;7.286;2023-05-08T08:36:02;100399.97;;;16.31;100.00
55540;BME280;41384;51.418;7.286;2023-05-08T08:38:27;100404.97;;;16.40;100.00
55540;BME280;41384;51.418;7.286;2023-05-08T08:40:53;100399.06;;;16.38;100.00
55540;BME280;41384;51.418;7.286;2023-05-08T08:43:18;100396.97;;;16.40;100.00
55540;BME280;41384;51.418;7.286;2023-05-08T08:45:43;100400.22;;;16.42;100.00
55540;BME280;41384;51.418;7.286;2023-05-08T08:48:10;100401.50;;;16.39;100.00
55540;BME280;41384;51.418;7.286;2023-05-08T08:50:41;100398.25;;;16.37;100.00
55540;BME280;41384;51.418;7.286;2023-05-08T08:53:15;100400.09;;;16.37;100.00
55540;BME280;41384;51.418;7.286;2023-05-08T08:55:45;100398.25;;;16.37;100.00
55540;BME280;41384;51.418;7.286;2023-05-08T09:00:59;100400.09;;;16.48;100.00
55540;BME280;41384;51.418;7.286;2023-05-08T09:03:25;100398.47;;;16.47;100.00
55540;BME280;41384;51.418;7.286;2023-05-08T09:05:51;100404.97;;;16.52;100.00
55540;BME280;41384;51.418;7.286;2023-05-08T09:08:17;100398.03;;;16.51;100.00
55540;BME280;41384;51.418;7.286;2023-05-08T09:10:43;100397.34;;;16.55;100.00
55540;BME280;41384;51.418;7.286;2023-05-08T09:13:08;100402.78;;;16.60;100.00
55540;BME280;41384;51.418;7.286;2023-05-08T09:15:33;100400.69;;;16.62;100.00
55540;BME280;41384;51.418;7.286;2023-05-08T09:18:02;100398.34;;;16.66;100.00
55540;BME280;41384;51.418;7.286;2023-05-08T09:20:28;100406.16;;;16.80;100.00
55540;BME280;41384;51.418;7.286;2023-05-08T09:22:53;100407.41;;;16.89;100.00
55540;BME280;41384;51.418;7.286;2023-05-08T09:25:18;100411.81;;;16.95;100.00
55540;BME280;41384;51.418;7.286;2023-05-08T09:27:44;100403.94;;;17.00;100.00
55540;BME280;41384;51.418;7.286;2023-05-08T09:30:11;100404.38;;;17.09;100.00
55540;BME280;41384;51.418;7.286;2023-05-08T09:32:38;100412.94;;;17.11;100.00
55540;BME280;41384;51.418;7.286;2023-05-08T09:35:05;100414.94;;;17.16;100.00
55540;BME280;41384;51.418;7.286;2023-05-08T09:37:31;100411.53;;;17.20;100.00
55540;BME280;41384;51.418;7.286;2023-05-08T09:40:13;100407.94;;;17.27;100.00
55540;BME280;41384;51.418;7.286;2023-05-08T09:42:39;100405.28;;;17.27;100.00
55540;BME280;41384;51.418;7.286;2023-05-08T09:45:05;100407.47;;;17.30;100.00
55540;BME280;41384;51.418;7.286;2023-05-08T09:47:30;100407.69;;;17.28;100.00
55540;BME280;41384;51.418;7.286;2023-05-08T09:52:26;100408.75;;;17.27;100.00
55540;BME280;41384;51.418;7.286;2023-05-08T09:54:59;100414.34;;;17.26;100.00
55540;BME280;41384;51.418;7.286;2023-05-08T09:57:25;100415.69;;;17.28;100.00
55540;BME280;41384;51.418;7.286;2023-05-08T09:59:59;100414.91;;;17.28;100.00
55540;BME280;41384;51.418;7.286;2023-05-08T10:02:25;100415.22;;;17.31;100.00
55540;BME280;41384;51.418;7.286;2023-05-08T10:04:50;100409.00;;;17.26;100.00
55540;BME280;41384;51.418;7.286;2023-05-08T10:07:26;100418.06;;;17.25;100.00
55540;BME280;41384;51.418;7.286;2023-05-08T10:10:02;100424.06;;;17.20;100.00
55540;BME280;41384;51.418;7.286;2023-05-08T10:12:28;100426.84;;;17.13;100.00
55540;BME280;41384;51.418;7.286;2023-05-08T10:14:54;100422.81;;;17.11;100.00
55540;BME280;41384;51.418;7.286;2023-05-08T10:17:25;100425.13;;;17.07;100.00
55540;BME280;41384;51.418;7.286;2023-05-08T10:19:57;100424.69;;;16.98;100.00
55540;BME280;41384;51.418;7.286;2023-05-08T10:22:24;100423.50;;;16.94;100.00
55540;BME280;41384;51.418;7.286;2023-05-08T10:24:54;100422.81;;;16.87;100.00
55540;BME280;41384;51.418;7.286;2023-05-08T10:27:27;100422.47;;;16.83;100.00
55540;BME280;41384;51.418;7.286;2023-05-08T10:29:59;100415.50;;;16.82;100.00
55540;BME280;41384;51.418;7.286;2023-05-08T10:32:27;100412.28;;;16.80;100.00
55540;BME280;41384;51.418;7.286;2023-05-08T10:34:55;100421.53;;;16.77;100.00
55540;BME280;41384;51.418;7.286;2023-05-08T10:37:23;100423.63;;;16.75;100.00
55540;BME280;41384;51.418;7.286;2023-05-08T10:39:48;100421.09;;;16.81;100.00
55540;BME280;41384;51.418;7.286;2023-05-08T10:42:14;100410.88;;;16.77;100.00
55540;BME280;41384;51.418;7.286;2023-05-08T10:44:39;100417.03;;;16.78;100.00
55540;BME280;41384;51.418;7.286;2023-05-08T10:55:29;100409.25;;;16.88;100.00
55540;BME280;41384;51.418;7.286;2023-05-08T10:58:01;100411.56;;;16.97;100.00
55540;BME280;41384;51.418;7.286;2023-05-08T11:00:31;100401.28;;;17.00;100.00
55540;BME280;41384;51.418;7.286;2023-05-08T11:03:04;100395.31;;;17.10;100.00
55540;BME280;41384;51.418;7.286;2023-05-08T11:05:30;100405.41;;;17.08;100.00
55540;BME280;41384;51.418;7.286;2023-05-08T11:07:56;100399.72;;;17.16;100.00
55540;BME280;41384;51.418;7.286;2023-05-08T11:10:28;100394.63;;;17.27;100.00
55540;BME280;41384;51.418;7.286;2023-05-08T11:12:54;100387.50;;;17.32;100.00
55540;BME280;41384;51.418;7.286;2023-05-08T11:15:37;100384.94;;;17.38;100.00
55540;BME280;41384;51.418;7.286;2023-05-08T11:18:05;100394.44;;;17.45;100.00
55540;BME280;41384;51.418;7.286;2023-05-08T11:20:40;100390.00;;;17.51;100.00
55540;BME280;41384;51.418;7.286;2023-05-08T11:23:22;100393.66;;;17.62;98.93
55540;BME280;41384;51.418;7.286;2023-05-08T11:25:57;100383.91;;;17.68;98.31
55540;BME280;41384;51.418;7.286;2023-05-08T11:28:24;100385.34;;;17.75;96.22
55540;BME280;41384;51.418;7.286;2023-05-08T11:30:52;100386.50;;;17.79;96.47
55540;BME280;41384;51.418;7.286;2023-05-08T11:33:19;100388.13;;;17.80;96.22
55540;BME280;41384;51.418;7.286;2023-05-08T11:35:57;100383.75;;;17.74;94.15
55540;BME280;41384;51.418;7.286;2023-05-08T11:40:55;100385.69;;;17.79;95.96
55540;BME280;41384;51.418;7.286;2023-05-08T11:43:31;100387.31;;;17.80;94.64
55540;BME280;41384;51.418;7.286;2023-05-08T11:46:18;100379.22;;;17.75;94.74
55540;BME280;41384;51.418;7.286;2023-05-08T11:48:43;100386.19;;;17.76;95.12
55540;BME280;41384;51.418;7.286;2023-05-08T11:51:09;100380.03;;;17.75;94.95
55540;BME280;41384;51.418;7.286;2023-05-08T11:53:36;100384.31;;;17.76;95.83
55540;BME280;41384;51.418;7.286;2023-05-08T11:56:02;100382.22;;;17.78;94.74
55540;BME280;41384;51.418;7.286;2023-05-08T11:58:27;100375.72;;;17.74;95.22
55540;BME280;41384;51.418;7.286;2023-05-08T12:00:52;100377.59;;;17.74;94.46
55540;BME280;41384;51.418;7.286;2023-05-08T12:03:20;100376.06;;;17.78;92.83
55540;BME280;41384;51.418;7.286;2023-05-08T12:05:48;100375.81;;;17.79;92.23
55540;BME280;41384;51.418;7.286;2023-05-08T12:08:15;100371.13;;;17.87;92.59
55540;BME280;41384;51.418;7.286;2023-05-08T12:10:48;100370.22;;;18.10;92.42
55540;BME280;41384;51.418;7.286;2023-05-08T12:13:20;100365.38;;;18.24;92.57
55540;BME280;41384;51.418;7.286;2023-05-08T12:15:46;100362.09;;;18.39;91.60
55540;BME280;41384;51.418;7.286;2023-05-08T12:18:12;100359.06;;;18.52;90.85
55540;BME280;41384;51.418;7.286;2023-05-08T12:20:38;100364.59;;;18.46;89.29
55540;BME280;41384;51.418;7.286;2023-05-08T12:23:03;100367.84;;;18.48;90.50
55540;BME280;41384;51.418;7.286;2023-05-08T12:25:28;100371.56;;;18.47;90.56
55540;BME280;41384;51.418;7.286;2023-05-08T12:27:54;100369.94;;;18.46;90.41
55540;BME280;41384;51.418;7.286;2023-05-08T12:30:21;100370.44;;;18.43;90.11
55540;BME280;41384;51.418;7.286;2023-05-08T12:32:46;100372.56;;;18.41;90.28
55540;BME280;41384;51.418;7.286;2023-05-08T12:35:13;100370.75;;;18.46;90.99
55540;BME280;41384;51.418;7.286;2023-05-08T12:37:38;100371.56;;;18.47;89.66
55540;BME280;41384;51.418;7.286;2023-05-08T12:40:05;100371.09;;;18.50;90.18
55540;BME280;41384;51.418;7.286;2023-05-08T12:42:49;100366.13;;;18.59;90.43
55540;BME280;41384;51.418;7.286;2023-05-08T12:45:26;100362.72;;;18.63;91.53
55540;BME280;41384;51.418;7.286;2023-05-08T12:47:53;100367.91;;;18.70;90.62
55540;BME280;41384;51.418;7.286;2023-05-08T12:50:21;100365.78;;;18.72;88.62
55540;BME280;41384;51.418;7.286;2023-05-08T12:52:48;100363.97;;;18.78;88.72
55540;BME280;41384;51.418;7.286;2023-05-08T12:55:28;100352.28;;;18.84;88.85
55540;BME280;41384;51.418;7.286;2023-05-08T12:58:09;100351.59;;;18.94;89.03
55540;BME280;41384;51.418;7.286;2023-05-08T13:00:47;100350.63;;;19.00;88.79
55540;BME280;41384;51.418;7.286;2023-05-08T13:03:22;100351.13;;;18.97;89.61
55540;BME280;41384;51.418;7.286;2023-05-08T13:05:49;100350.00;;;18.93;89.81
55540;BME280;41384;51.418;7.286;2023-05-08T13:08:14;100352.50;;;19.00;91.47
55540;BME280;41384;51.418;7.286;2023-05-08T13:10:53;100353.09;;;19.02;90.55
55540;BME280;41384;51.418;7.286;2023-05-08T13:13:21;100358.31;;;18.96;90.41
55540;BME280;41384;51.418;7.286;2023-05-08T13:15:47;100350.56;;;18.95;91.27